Tenerife Norte / Los Rodeos GCXO

Aviation Digital Data Service (ADDS)

Output produced by METARs form (2129 UTC 12 October 2017)
METAR text: GCXO 122100Z 00000KT CAVOK 25/05 Q1022 NOSIG
Conditions at: GCXO (TENERIFE/LOS ROD, ES) observed 2100 UTC 12 October 2017
Temperature: 25.0°C (77°F)
Dewpoint: 5.0°C (41°F) [RH = 28%]
Pressure (altimeter): 30.18 inches Hg (1022.0 mb)
Winds: calm
Visibility: 6 or more miles (10+ km)
Ceiling: ceiling and visibility are OK
Clouds: unknown
Weather: no significant weather observed at this time

Forecast for: GCXO (TENERIFE/LOS ROD, ES)
Text: TAF GCXO 122000Z 1221/1321 VRB04KT CAVOK TX33/1314Z TN20/1306Z
Forecast period: 2100 UTC 12 October 2017 to 2100 UTC 13 October 2017
Forecast type: FROM: standard forecast or significant change
Winds: variable direction winds at 5 MPH (4 knots; 2.1 m/s)
Visibility: 6 or more miles (10+ km)
Clouds: not forecast
Weather: no significant weather forecast for this period
Text: PROB40
Forecast period: 1000 to 1500 UTC 13 October 2017
Forecast type: TEMPORARY: The following changes expected for less than half the time period
Winds: from the S (180 degrees) at 17 MPH (15 knots; 7.8 m/s)
gusting to 34 MPH (30 knots; 15.6 m/s)
Weather: no significant weather forecast for this period

Tenerife Sur / Aeropuerto GCTS

Aviation Digital Data Service (ADDS)

Output produced by METARs form (2129 UTC 12 October 2017)
METAR text: GCTS 122100Z 07008KT 9999 FEW090 23/21 Q1018 NOSIG
Conditions at: GCTS (TENERIFE SUR/REI, ES) observed 2100 UTC 12 October 2017
Temperature: 23.0°C (73°F)
Dewpoint: 21.0°C (70°F) [RH = 89%]
Pressure (altimeter): 30.06 inches Hg (1018.0 mb)
Winds: from the ENE (70 degrees) at 9 MPH (8 knots; 4.2 m/s)
Visibility: 6 or more miles (10+ km)
Ceiling: at least 12,000 feet AGL
Clouds: few clouds at 9000 feet AGL
Weather: no significant weather observed at this time

Forecast for: GCTS (TENERIFE SUR/REI, ES)
Text: TAF GCTS 122000Z 1221/1321 VRB05KT CAVOK TX33/1314Z TN24/1306Z
Forecast period: 2100 UTC 12 October 2017 to 2100 UTC 13 October 2017
Forecast type: FROM: standard forecast or significant change
Winds: variable direction winds at 6 MPH (5 knots; 2.6 m/s)
Visibility: 6 or more miles (10+ km)
Clouds: not forecast
Weather: no significant weather forecast for this period
Text: PROB40 1310/1318 10011KT
Forecast period: 1000 to 1800 UTC 13 October 2017
Forecast type: PROBABLE: 40 percent likelihood of the following during this time
Winds: from the E (100 degrees) at 13 MPH (11 knots; 5.7 m/s)
Weather: no significant weather forecast for this period

La Palma / Aeropuerto GCLA

Aviation Digital Data Service (ADDS)

Output produced by METARs form (2129 UTC 12 October 2017)
METAR text: GCLA 122100Z AUTO 01009KT 340V050 9999 BKN017/// 24/21 Q1019
Conditions at: GCLA (LA PALMA AIRPORT, ES) observed 2100 UTC 12 October 2017
Temperature: 24.0°C (75°F)
Dewpoint: 21.0°C (70°F) [RH = 83%]
Pressure (altimeter): 30.09 inches Hg (1019.0 mb)
Winds: from the N (10 degrees) at 10 MPH (9 knots; 4.7 m/s)
Visibility: 6 or more miles (10+ km)
Ceiling: 1700 feet AGL
Clouds: broken clouds at 1700 feet AGL
Weather: no significant weather observed at this time

Forecast for: GCLA (LA PALMA AIRPORT, ES)
Text: TAF GCLA 122000Z 1221/1321 01008KT 9999 BKN020 TX31/1314Z TN24/1306Z
Forecast period: 2100 UTC 12 October 2017 to 2100 UTC 13 October 2017
Forecast type: FROM: standard forecast or significant change
Winds: from the N (10 degrees) at 9 MPH (8 knots; 4.2 m/s)
Visibility: 6 or more miles (10+ km)
Ceiling: 2000 feet AGL
Clouds: broken clouds at 2000 feet AGL
Weather: no significant weather forecast for this period

Hierro / Aeropuerto GCHI

Aviation Digital Data Service (ADDS)

Output produced by METARs form (2129 UTC 12 October 2017)
METAR text: GCHI 122100Z AUTO 35016KT 9999 SCT014/// 23/21 Q1018
Conditions at: GCHI (HIERRO AIRPORT , ES) observed 2100 UTC 12 October 2017
Temperature: 23.0°C (73°F)
Dewpoint: 21.0°C (70°F) [RH = 89%]
Pressure (altimeter): 30.06 inches Hg (1018.0 mb)
Winds: from the N (350 degrees) at 18 MPH (16 knots; 8.3 m/s)
Visibility: 6 or more miles (10+ km)
Ceiling: at least 12,000 feet AGL
Clouds: scattered clouds at 1400 feet AGL
Weather: no significant weather observed at this time

Forecast for: GCHI (HIERRO AIRPORT , ES)
Text: TAF GCHI 122000Z 1221/1321 36013KT 9999 SCT015 TX28/1314Z TN23/1306Z
Forecast period: 2100 UTC 12 October 2017 to 2100 UTC 13 October 2017
Forecast type: FROM: standard forecast or significant change
Winds: from the N (360 degrees) at 15 MPH (13 knots; 6.8 m/s)
Visibility: 6 or more miles (10+ km)
Clouds: scattered clouds at 1500 feet AGL
Weather: no significant weather forecast for this period

Gran Canaria / Aeropuerto GCLP

Aviation Digital Data Service (ADDS)

Output produced by METARs form (2129 UTC 12 October 2017)
METAR text: GCLP 122100Z 02011KT CAVOK 24/22 Q1017 NOSIG
Conditions at: GCLP (LAS PALMAS/GANDO, ES) observed 2100 UTC 12 October 2017
Temperature: 24.0°C (75°F)
Dewpoint: 22.0°C (72°F) [RH = 89%]
Pressure (altimeter): 30.03 inches Hg (1017.0 mb)
Winds: from the NNE (20 degrees) at 13 MPH (11 knots; 5.7 m/s)
Visibility: 6 or more miles (10+ km)
Ceiling: ceiling and visibility are OK
Clouds: unknown
Weather: no significant weather observed at this time

Forecast for: GCLP (LAS PALMAS/GANDO, ES)
Text: TAF GCLP 122000Z 1221/1321 35011KT CAVOK TX34/1315Z TN24/1306Z
Forecast period: 2100 UTC 12 October 2017 to 0900 UTC 13 October 2017
Forecast type: FROM: standard forecast or significant change
Winds: from the N (350 degrees) at 13 MPH (11 knots; 5.7 m/s)
Visibility: 6 or more miles (10+ km)
Clouds: not forecast
Weather: no significant weather forecast for this period
Text: BECMG 1309/1312 18011KT
Forecast period: 0900 to 1700 UTC 13 October 2017
Forecast type: BECOMING: Conditions expected to become as follows by 1200 UTC 13 October 2017
Winds: from the S (180 degrees) at 13 MPH (11 knots; 5.7 m/s)
Visibility: 6 or more miles (10+ km)
Weather: no significant weather forecast for this period
Text: BECMG 1317/1319 02007KT
Forecast period: 1700 to 2100 UTC 13 October 2017
Forecast type: BECOMING: Conditions expected to become as follows by 1900 UTC 13 October 2017
Winds: from the NNE (20 degrees) at 8 MPH (7 knots; 3.6 m/s)
Visibility: 6 or more miles (10+ km)
Weather: no significant weather forecast for this period

Fuerteventura / Aeropuerto GCFV

Aviation Digital Data Service (ADDS)

Output produced by METARs form (2129 UTC 12 October 2017)
METAR text: GCFV 122100Z 33005KT 290V360 CAVOK 27/14 Q1018 WS ALL RWY
Conditions at: GCFV (FUERTEVENTURA AR, ES) observed 2100 UTC 12 October 2017
Temperature: 27.0°C (81°F)
Dewpoint: 14.0°C (57°F) [RH = 45%]
Pressure (altimeter): 30.06 inches Hg (1018.0 mb)
Winds: from the NNW (330 degrees) at 6 MPH (5 knots; 2.6 m/s)
Visibility: 6 or more miles (10+ km)
Ceiling: ceiling and visibility are OK
Clouds: unknown
Weather: no significant weather observed at this time

Forecast for: GCFV (FUERTEVENTURA AR, ES)
Text: TAF GCFV 122000Z 1221/1321 03007KT CAVOK TX36/1314Z TN24/1306Z
Forecast period: 2100 UTC 12 October 2017 to 0700 UTC 13 October 2017
Forecast type: FROM: standard forecast or significant change
Winds: from the NNE (30 degrees) at 8 MPH (7 knots; 3.6 m/s)
Visibility: 6 or more miles (10+ km)
Clouds: not forecast
Weather: no significant weather forecast for this period
Text: BECMG 1307/1310 18011KT
Forecast period: 0700 to 1700 UTC 13 October 2017
Forecast type: BECOMING: Conditions expected to become as follows by 1000 UTC 13 October 2017
Winds: from the S (180 degrees) at 13 MPH (11 knots; 5.7 m/s)
Visibility: 6 or more miles (10+ km)
Weather: no significant weather forecast for this period
Text: BECMG 1317/1319 03007KT
Forecast period: 1700 to 2100 UTC 13 October 2017
Forecast type: BECOMING: Conditions expected to become as follows by 1900 UTC 13 October 2017
Winds: from the NNE (30 degrees) at 8 MPH (7 knots; 3.6 m/s)
Visibility: 6 or more miles (10+ km)
Weather: no significant weather forecast for this period

Lanzarote / Aeropuerto GCRR

Aviation Digital Data Service (ADDS)

Output produced by METARs form (2129 UTC 12 October 2017)
METAR text: GCRR 122100Z VRB02KT CAVOK 25/19 Q1018
Conditions at: GCRR (ARRECIFE/LANZARO, ES) observed 2100 UTC 12 October 2017
Temperature: 25.0°C (77°F)
Dewpoint: 19.0°C (66°F) [RH = 69%]
Pressure (altimeter): 30.06 inches Hg (1018.0 mb)
Winds: variable direction winds at 2 MPH (2 knots; 1.0 m/s)
Visibility: 6 or more miles (10+ km)
Ceiling: ceiling and visibility are OK
Clouds: unknown
Weather: no significant weather observed at this time

Forecast for: GCRR (ARRECIFE/LANZARO, ES)
Text: TAF GCRR 122000Z 1221/1321 02011KT CAVOK TX36/1314Z TN23/1306Z
Forecast period: 2100 UTC 12 October 2017 to 2100 UTC 13 October 2017
Forecast type: FROM: standard forecast or significant change
Winds: from the NNE (20 degrees) at 13 MPH (11 knots; 5.7 m/s)
Visibility: 6 or more miles (10+ km)
Clouds: not forecast
Weather: no significant weather forecast for this period
Text: TEMPO 1221/1318 VRB05KT
Forecast period: 2100 UTC 12 October 2017 to 1800 UTC 13 October 2017
Forecast type: TEMPORARY: The following changes expected for less than half the time period
Winds: variable direction winds at 6 MPH (5 knots; 2.6 m/s)
Weather: no significant weather forecast for this period